createdAt,value
2022-12-11T00:00:17.257Z,36.20
2022-12-11T00:02:44.922Z,38.73
2022-12-11T00:05:13.245Z,35.77
2022-12-11T00:07:40.702Z,29.03
2022-12-11T00:10:08.465Z,36.50
2022-12-11T00:12:35.844Z,47.83
2022-12-11T00:15:03.337Z,39.70
2022-12-11T00:17:30.889Z,35.20
2022-12-11T00:19:58.449Z,36.50
2022-12-11T00:22:25.844Z,36.10
2022-12-11T00:24:53.385Z,33.67
2022-12-11T00:27:20.851Z,34.80
2022-12-11T00:29:48.268Z,39.30
2022-12-11T00:32:15.761Z,33.40
2022-12-11T00:34:43.148Z,34.90
2022-12-11T00:37:10.643Z,33.53
2022-12-11T00:39:39.808Z,32.27
2022-12-11T00:42:08.749Z,37.83
2022-12-11T00:44:36.529Z,36.27
2022-12-11T00:47:04.493Z,35.27
2022-12-11T00:49:31.999Z,33.60
2022-12-11T00:51:59.402Z,33.70
2022-12-11T00:54:26.851Z,36.10
2022-12-11T00:56:56.139Z,32.20
2022-12-11T00:59:23.936Z,33.37
2022-12-11T01:01:53.309Z,37.50
2022-12-11T01:04:20.818Z,28.93
2022-12-11T01:06:48.270Z,34.43
2022-12-11T01:09:34.590Z,31.30
2022-12-11T01:12:01.864Z,33.77
2022-12-11T01:14:29.220Z,39.17
2022-12-11T01:16:56.674Z,36.97
2022-12-11T01:19:24.127Z,36.67
2022-12-11T01:21:51.578Z,35.40
2022-12-11T01:24:19.032Z,36.70
2022-12-11T01:26:46.430Z,33.60
2022-12-11T01:29:14.071Z,31.87
2022-12-11T01:31:44.396Z,36.37
2022-12-11T01:34:12.436Z,41.83
2022-12-11T01:36:40.022Z,34.03
2022-12-11T01:39:08.996Z,36.37
2022-12-11T01:41:36.412Z,35.57
2022-12-11T01:44:16.182Z,34.30
2022-12-11T01:46:44.350Z,34.80
2022-12-11T01:49:13.452Z,35.13
2022-12-11T01:51:52.072Z,34.27
2022-12-11T01:54:21.267Z,39.97
2022-12-11T01:56:50.657Z,35.63
2022-12-11T01:59:19.743Z,37.37
2022-12-11T02:01:51.211Z,35.33
2022-12-11T02:04:19.394Z,35.67
2022-12-11T02:06:48.545Z,39.27
2022-12-11T02:09:17.823Z,37.57
2022-12-11T02:11:54.768Z,37.57
2022-12-11T02:14:24.894Z,35.20
2022-12-11T02:16:55.422Z,33.50
2022-12-11T02:19:45.817Z,36.33
2022-12-11T02:22:17.624Z,33.97
2022-12-11T02:24:50.871Z,31.03
2022-12-11T02:27:29.900Z,33.80
2022-12-11T02:30:07.531Z,35.10
2022-12-11T02:32:35.071Z,35.60
2022-12-11T02:35:09.601Z,38.03
2022-12-11T02:37:38.478Z,40.27
2022-12-11T02:40:08.429Z,32.20
2022-12-11T02:42:36.916Z,28.63
2022-12-11T02:45:05.458Z,36.50
2022-12-11T02:47:34.039Z,35.00
2022-12-11T02:50:02.885Z,38.10
2022-12-11T02:52:31.879Z,37.83
2022-12-11T02:55:00.179Z,37.67
2022-12-11T02:57:34.195Z,29.30
2022-12-11T03:00:01.514Z,32.33
2022-12-11T03:02:29.077Z,33.97
2022-12-11T03:04:57.745Z,34.37
2022-12-11T03:07:26.833Z,38.73
2022-12-11T03:09:54.526Z,35.27
2022-12-11T03:12:25.040Z,33.97
2022-12-11T03:14:52.572Z,41.53
2022-12-11T03:17:24.325Z,34.57
2022-12-11T03:19:57.750Z,34.50
2022-12-11T03:22:34.831Z,35.50
2022-12-11T03:25:05.971Z,33.27
2022-12-11T03:27:51.429Z,33.20
2022-12-11T03:30:20.217Z,34.20
2022-12-11T03:32:52.392Z,35.63
2022-12-11T03:35:27.395Z,37.57
2022-12-11T03:37:55.276Z,36.97
2022-12-11T03:40:23.348Z,35.30
2022-12-11T03:42:52.593Z,41.47
2022-12-11T03:45:20.678Z,32.93
2022-12-11T03:47:48.263Z,41.63
2022-12-11T03:50:16.690Z,33.07
2022-12-11T03:52:46.188Z,38.90
2022-12-11T03:55:14.855Z,35.87
2022-12-11T03:57:42.016Z,38.60
2022-12-11T04:00:10.908Z,38.17
2022-12-11T04:02:41.543Z,34.73
2022-12-11T04:05:09.652Z,38.20
2022-12-11T04:07:37.123Z,32.10
2022-12-11T04:10:05.239Z,34.13
2022-12-11T04:12:32.388Z,34.83
2022-12-11T04:15:02.406Z,40.80
2022-12-11T04:17:54.898Z,32.30
2022-12-11T04:20:41.028Z,35.70
2022-12-11T04:23:30.809Z,44.17
2022-12-11T04:26:08.330Z,40.97
2022-12-11T04:28:35.893Z,40.07
2022-12-11T04:31:03.139Z,39.70
2022-12-11T04:33:30.761Z,36.73
2022-12-11T04:35:58.476Z,42.77
2022-12-11T04:38:25.771Z,34.47
2022-12-11T04:41:09.702Z,45.83
2022-12-11T04:43:36.983Z,39.60
2022-12-11T04:46:11.908Z,44.70
2022-12-11T04:48:39.666Z,39.07
2022-12-11T04:51:07.374Z,41.90
2022-12-11T04:53:34.740Z,42.57
2022-12-11T04:56:02.096Z,35.83
2022-12-11T04:58:29.281Z,41.27
2022-12-11T05:00:56.406Z,36.57
2022-12-11T05:03:24.740Z,33.80
2022-12-11T05:05:53.157Z,42.13
2022-12-11T05:08:21.076Z,40.93
2022-12-11T05:11:02.172Z,34.07
2022-12-11T05:13:29.954Z,40.23
2022-12-11T05:15:57.439Z,42.87
2022-12-11T05:18:25.135Z,38.70
2022-12-11T05:20:59.665Z,35.37
2022-12-11T05:23:27.169Z,43.90
2022-12-11T05:25:58.596Z,41.37
2022-12-11T05:28:26.703Z,39.00
2022-12-11T05:30:57.930Z,37.50
2022-12-11T05:33:25.817Z,42.60
2022-12-11T05:35:52.968Z,42.70
2022-12-11T05:38:20.125Z,44.57
2022-12-11T05:40:56.721Z,35.20
2022-12-11T05:43:23.939Z,35.80
2022-12-11T05:45:51.053Z,45.90
2022-12-11T05:48:18.251Z,38.40
2022-12-11T05:50:45.686Z,43.67
2022-12-11T05:53:12.835Z,36.37
2022-12-11T05:55:39.982Z,45.77
2022-12-11T05:58:09.218Z,39.30
2022-12-11T06:00:36.474Z,35.93
2022-12-11T06:03:04.195Z,43.93
2022-12-11T06:05:31.479Z,42.80
2022-12-11T06:08:00.179Z,45.97
2022-12-11T06:10:27.393Z,40.17
2022-12-11T06:12:54.497Z,45.90
2022-12-11T06:15:22.123Z,33.53
2022-12-11T06:17:49.204Z,45.40
2022-12-11T06:20:16.370Z,44.10
2022-12-11T06:22:43.575Z,41.30
2022-12-11T06:25:11.170Z,40.07
2022-12-11T06:27:38.601Z,42.63
2022-12-11T06:30:05.948Z,40.30
2022-12-11T06:32:34.090Z,39.70
2022-12-11T06:35:01.211Z,36.77
2022-12-11T06:37:28.310Z,44.03
2022-12-11T06:39:55.423Z,40.07
2022-12-11T06:42:22.574Z,38.77
2022-12-11T06:44:50.251Z,43.13
2022-12-11T06:47:17.381Z,37.97
2022-12-11T06:49:44.502Z,47.40
2022-12-11T06:52:18.031Z,35.60
2022-12-11T06:54:45.727Z,38.97
2022-12-11T06:57:14.217Z,43.80
2022-12-11T06:59:42.509Z,41.30
2022-12-11T07:02:16.595Z,41.77
2022-12-11T07:04:43.983Z,41.90
2022-12-11T07:07:11.424Z,42.23
2022-12-11T07:09:39.854Z,45.07
2022-12-11T07:12:07.202Z,41.70
2022-12-11T07:14:34.374Z,37.67
2022-12-11T07:17:01.847Z,42.93
2022-12-11T07:19:28.970Z,42.03
2022-12-11T07:21:56.097Z,37.23
2022-12-11T07:24:23.817Z,42.40
2022-12-11T07:26:50.965Z,44.63
2022-12-11T07:29:18.095Z,44.07
2022-12-11T07:31:45.270Z,43.57
2022-12-11T07:34:14.025Z,39.83
2022-12-11T07:36:41.652Z,46.57
2022-12-11T07:39:09.077Z,47.23
2022-12-11T07:41:36.300Z,42.80
2022-12-11T07:44:06.723Z,40.17
2022-12-11T07:46:34.491Z,42.23
2022-12-11T07:49:02.715Z,36.17
2022-12-11T07:51:32.250Z,39.37
2022-12-11T07:54:00.396Z,36.80
2022-12-11T07:56:28.572Z,45.20
2022-12-11T07:58:55.814Z,41.93
2022-12-11T08:01:25.951Z,39.77
2022-12-11T08:03:53.803Z,45.23
2022-12-11T08:06:26.844Z,44.27
2022-12-11T08:08:54.929Z,49.93
2022-12-11T08:11:22.106Z,46.70
2022-12-11T08:13:49.709Z,44.27
2022-12-11T08:16:18.353Z,45.37
2022-12-11T08:18:46.339Z,51.43
2022-12-11T08:21:15.046Z,49.63
2022-12-11T08:23:42.706Z,47.67
2022-12-11T08:26:11.540Z,51.10
2022-12-11T08:28:38.764Z,50.70
2022-12-11T08:31:06.635Z,47.20
2022-12-11T08:33:34.472Z,41.50
2022-12-11T08:36:05.345Z,45.97
2022-12-11T08:38:32.474Z,43.60
2022-12-11T08:40:59.618Z,52.73
2022-12-11T08:43:26.790Z,46.17
2022-12-11T08:45:53.960Z,49.67
2022-12-11T08:48:21.207Z,54.13
2022-12-11T08:50:49.580Z,46.60
2022-12-11T08:53:16.784Z,54.60
2022-12-11T08:55:43.931Z,47.13
2022-12-11T08:58:11.069Z,48.20
2022-12-11T09:00:38.241Z,44.10
2022-12-11T09:03:09.754Z,49.67
2022-12-11T09:05:39.987Z,42.80
2022-12-11T09:08:07.449Z,48.77
2022-12-11T09:10:34.617Z,54.60
2022-12-11T09:13:01.765Z,48.83
2022-12-11T09:15:29.011Z,54.40
2022-12-11T09:17:56.181Z,49.00
2022-12-11T09:20:23.322Z,48.17
2022-12-11T09:22:50.571Z,48.73
2022-12-11T09:25:19.847Z,52.13
2022-12-11T09:27:47.187Z,53.00
2022-12-11T09:30:15.448Z,51.83
2022-12-11T09:32:42.653Z,54.90
2022-12-11T09:35:11.280Z,49.27
2022-12-11T09:37:38.679Z,52.00
2022-12-11T09:40:07.877Z,59.70
2022-12-11T09:42:46.963Z,55.73
2022-12-11T09:45:15.723Z,54.30
2022-12-11T09:47:49.958Z,53.97
2022-12-11T09:50:27.734Z,50.63
2022-12-11T09:52:54.863Z,51.93
2022-12-11T09:55:25.840Z,53.07
2022-12-11T09:57:56.040Z,52.70
2022-12-11T10:00:27.036Z,52.83
2022-12-11T10:03:12.218Z,47.63
2022-12-11T10:05:48.430Z,50.57
2022-12-11T10:08:22.584Z,54.80
2022-12-11T10:11:03.842Z,49.80
2022-12-11T10:13:30.969Z,57.43
2022-12-11T10:16:01.103Z,56.03
2022-12-11T10:18:30.864Z,52.27
2022-12-11T10:21:01.851Z,55.20
2022-12-11T10:23:35.350Z,55.33
2022-12-11T10:26:05.433Z,49.90
2022-12-11T10:28:32.581Z,57.03
2022-12-11T10:31:06.088Z,45.03
2022-12-11T10:33:37.976Z,50.90
2022-12-11T10:36:07.865Z,48.40
2022-12-11T10:38:39.338Z,54.00
2022-12-11T10:41:11.878Z,47.70
2022-12-11T10:43:43.437Z,48.73
2022-12-11T10:46:17.704Z,57.17
2022-12-11T10:48:49.641Z,49.03
2022-12-11T10:51:17.035Z,51.90
2022-12-11T10:53:44.975Z,54.60
2022-12-11T10:56:12.882Z,49.30
2022-12-11T10:58:48.193Z,60.23
2022-12-11T11:01:16.777Z,48.83
2022-12-11T11:04:04.714Z,60.03
2022-12-11T11:06:31.874Z,51.20
2022-12-11T11:09:00.549Z,58.57
2022-12-11T11:11:27.731Z,47.30
2022-12-11T11:14:15.356Z,62.30
2022-12-11T11:16:44.164Z,51.30
2022-12-11T11:19:25.434Z,56.93
2022-12-11T11:21:54.245Z,62.00
2022-12-11T11:24:27.145Z,54.37
2022-12-11T11:27:24.086Z,61.20
2022-12-11T11:29:43.192Z,56.93
2022-12-11T11:32:16.553Z,59.30
2022-12-11T11:34:43.879Z,58.43
2022-12-11T11:37:29.936Z,60.60
2022-12-11T11:39:59.776Z,57.23
2022-12-11T11:42:34.193Z,57.20
2022-12-11T11:45:07.747Z,57.60
2022-12-11T11:47:37.243Z,53.27
2022-12-11T11:50:08.795Z,53.30
2022-12-11T11:52:44.140Z,54.27
2022-12-11T11:55:29.102Z,45.90
2022-12-11T11:58:00.037Z,43.47
2022-12-11T12:00:33.310Z,50.80
2022-12-11T12:03:02.606Z,50.73
2022-12-11T12:05:39.219Z,48.37
2022-12-11T12:08:12.923Z,45.43
2022-12-11T12:10:42.822Z,49.90
2022-12-11T12:13:30.072Z,44.80
2022-12-11T12:15:58.475Z,48.53
2022-12-11T12:18:48.946Z,46.50
2022-12-11T12:21:32.175Z,43.17
2022-12-11T12:24:18.292Z,48.07
2022-12-11T12:26:53.320Z,42.87
2022-12-11T12:29:35.093Z,51.23
2022-12-11T12:32:21.589Z,48.63
2022-12-11T12:34:51.768Z,39.93
2022-12-11T12:37:27.229Z,40.60
2022-12-11T12:40:15.322Z,44.13
2022-12-11T12:43:00.909Z,46.03
2022-12-11T12:45:31.480Z,45.63
2022-12-11T12:47:58.682Z,40.10
2022-12-11T12:50:28.243Z,42.60
2022-12-11T12:52:55.957Z,47.10
2022-12-11T12:55:25.714Z,45.47
2022-12-11T12:57:57.655Z,45.50
2022-12-11T13:00:27.744Z,37.13
2022-12-11T13:02:56.158Z,44.53
2022-12-11T13:05:31.348Z,39.50
2022-12-11T13:08:00.221Z,40.50
2022-12-11T13:10:34.970Z,39.30
2022-12-11T13:13:03.077Z,44.80
2022-12-11T13:15:35.544Z,36.97
2022-12-11T13:18:04.383Z,31.70
2022-12-11T13:20:32.913Z,42.03
2022-12-11T13:23:09.882Z,41.43
2022-12-11T13:25:51.389Z,40.47
2022-12-11T13:28:24.683Z,45.67
2022-12-11T13:31:23.822Z,45.43
2022-12-11T13:33:52.090Z,39.30
2022-12-11T13:36:24.297Z,35.83
2022-12-11T13:39:10.822Z,35.43
2022-12-11T13:41:38.141Z,32.60
2022-12-11T13:44:07.023Z,39.03
2022-12-11T13:46:36.043Z,42.93
2022-12-11T13:49:04.888Z,42.37
2022-12-11T13:51:35.069Z,38.70
2022-12-11T13:54:06.666Z,40.90
2022-12-11T13:56:34.274Z,38.17
2022-12-11T13:59:01.427Z,42.17
2022-12-11T14:01:31.235Z,41.10
2022-12-11T14:04:00.066Z,41.93
2022-12-11T14:06:28.568Z,37.77
2022-12-11T14:08:56.921Z,37.43
2022-12-11T14:11:38.324Z,40.90
2022-12-11T14:14:07.260Z,34.23
2022-12-11T14:16:34.585Z,36.60
2022-12-11T14:19:09.575Z,42.00
2022-12-11T14:21:37.182Z,38.03
2022-12-11T14:24:06.518Z,35.50
2022-12-11T14:26:34.781Z,41.40
2022-12-11T14:29:02.808Z,40.07
2022-12-11T14:31:43.948Z,38.30
2022-12-11T14:34:13.897Z,36.47
2022-12-11T14:36:41.955Z,34.43
2022-12-11T14:39:14.487Z,37.33
2022-12-11T14:42:04.146Z,43.33
2022-12-11T14:44:33.096Z,35.50
2022-12-11T14:47:05.065Z,39.80
2022-12-11T14:49:40.354Z,38.37
2022-12-11T14:52:14.450Z,41.97
2022-12-11T14:54:44.797Z,39.30
2022-12-11T14:57:23.924Z,35.30
2022-12-11T14:59:51.945Z,45.13
2022-12-11T15:02:30.551Z,39.90
2022-12-11T15:05:03.969Z,39.80
2022-12-11T15:07:31.244Z,36.67
2022-12-11T15:09:58.423Z,42.77
2022-12-11T15:12:26.214Z,38.90
2022-12-11T15:14:55.907Z,37.27
2022-12-11T15:17:23.744Z,32.97
2022-12-11T15:19:53.240Z,35.27
2022-12-11T15:22:23.714Z,35.73
2022-12-11T15:24:52.161Z,39.57
2022-12-11T15:27:31.217Z,41.37
2022-12-11T15:29:58.856Z,35.00
2022-12-11T15:32:26.932Z,44.00
2022-12-11T15:34:55.409Z,42.67
2022-12-11T15:37:24.246Z,37.20
2022-12-11T15:39:51.993Z,42.23
2022-12-11T15:42:26.138Z,48.60
2022-12-11T15:44:53.825Z,43.40
2022-12-11T15:47:25.189Z,35.00
2022-12-11T15:50:18.434Z,39.30
2022-12-11T15:52:46.427Z,40.77
2022-12-11T15:55:14.999Z,46.30
2022-12-11T15:57:45.779Z,43.80
2022-12-11T16:00:17.087Z,45.37
2022-12-11T16:02:44.200Z,40.97
2022-12-11T16:05:12.171Z,48.30
2022-12-11T16:07:39.525Z,43.33
2022-12-11T16:10:07.549Z,39.33
2022-12-11T16:12:34.789Z,39.00
2022-12-11T16:15:03.105Z,48.43
2022-12-11T16:17:31.304Z,44.97
2022-12-11T16:19:58.452Z,44.97
2022-12-11T16:22:27.629Z,45.67
2022-12-11T16:24:55.023Z,50.20
2022-12-11T16:27:23.380Z,36.67
2022-12-11T16:29:51.065Z,41.60
2022-12-11T16:32:18.558Z,41.50
2022-12-11T16:34:49.067Z,42.10
2022-12-11T16:37:16.297Z,40.93
2022-12-11T16:39:45.805Z,43.70
2022-12-11T16:42:12.939Z,40.17
2022-12-11T16:44:43.981Z,42.23
2022-12-11T16:47:11.742Z,39.57
2022-12-11T16:49:38.858Z,45.73
2022-12-11T16:52:06.073Z,38.50
2022-12-11T16:54:33.177Z,49.23
2022-12-11T16:57:00.416Z,46.87
2022-12-11T16:59:29.958Z,41.23
2022-12-11T17:01:59.507Z,39.30
2022-12-11T17:04:28.498Z,40.57
2022-12-11T17:06:55.651Z,44.30
2022-12-11T17:09:22.867Z,45.77
2022-12-11T17:11:50.205Z,43.57
2022-12-11T17:14:17.371Z,41.17
2022-12-11T17:16:45.437Z,51.37
2022-12-11T17:19:12.619Z,40.40
2022-12-11T17:21:39.793Z,51.40
2022-12-11T17:24:08.668Z,42.83
2022-12-11T17:26:35.799Z,47.17
2022-12-11T17:29:02.990Z,45.67
2022-12-11T17:31:31.659Z,38.40
2022-12-11T17:34:00.521Z,43.90
2022-12-11T17:36:28.563Z,43.17
2022-12-11T17:38:55.737Z,42.83
2022-12-11T17:41:23.341Z,44.87
2022-12-11T17:43:51.891Z,48.97
2022-12-11T17:46:19.886Z,53.10
2022-12-11T17:48:47.576Z,57.53
2022-12-11T17:51:20.932Z,51.63
2022-12-11T17:53:48.507Z,41.83
2022-12-11T17:56:16.396Z,52.70
2022-12-11T17:58:43.673Z,52.60
2022-12-11T18:01:12.341Z,47.20
2022-12-11T18:03:40.254Z,43.83
2022-12-11T18:06:10.192Z,49.53
2022-12-11T18:08:37.576Z,46.67
2022-12-11T18:11:15.605Z,45.97
2022-12-11T18:13:43.536Z,48.53
2022-12-11T18:16:25.528Z,44.97
2022-12-11T18:18:52.865Z,50.73
2022-12-11T18:21:22.104Z,46.90
2022-12-11T18:23:50.359Z,48.30
2022-12-11T18:26:18.310Z,51.20
2022-12-11T18:28:46.218Z,55.30
2022-12-11T18:31:13.975Z,49.97
2022-12-11T18:33:41.982Z,44.27
2022-12-11T18:36:09.461Z,45.73
2022-12-11T18:38:37.036Z,46.33
2022-12-11T18:41:04.805Z,52.27
2022-12-11T18:43:32.260Z,46.60
2022-12-11T18:45:59.560Z,49.87
2022-12-11T18:48:28.991Z,50.70
2022-12-11T18:50:56.119Z,49.40
2022-12-11T18:53:23.268Z,41.93
2022-12-11T18:55:51.225Z,54.20
2022-12-11T18:58:20.708Z,54.77
2022-12-11T19:00:47.959Z,57.47
2022-12-11T19:03:15.252Z,44.33
2022-12-11T19:05:43.776Z,48.47
2022-12-11T19:08:13.912Z,52.77
2022-12-11T19:10:42.608Z,51.17
2022-12-11T19:13:09.972Z,48.53
2022-12-11T19:15:43.732Z,41.90
2022-12-11T19:18:11.539Z,42.50
2022-12-11T19:20:49.321Z,35.90
2022-12-11T19:23:18.229Z,38.17
2022-12-11T19:25:46.648Z,34.80
2022-12-11T19:28:14.725Z,33.33
2022-12-11T19:30:43.320Z,37.43
2022-12-11T19:33:10.475Z,38.93
2022-12-11T19:35:37.774Z,39.93
2022-12-11T19:38:05.044Z,45.93
2022-12-11T19:40:32.174Z,40.27
2022-12-11T19:42:59.656Z,39.00
2022-12-11T19:45:26.919Z,51.87
2022-12-11T19:47:55.083Z,45.60
2022-12-11T19:50:22.252Z,49.40
2022-12-11T19:52:50.431Z,42.80
2022-12-11T19:55:19.476Z,35.07
2022-12-11T19:57:46.803Z,42.13
2022-12-11T20:00:14.558Z,39.57
2022-12-11T20:02:42.335Z,38.60
2022-12-11T20:05:10.026Z,43.60
2022-12-11T20:07:38.605Z,45.10
2022-12-11T20:10:05.964Z,47.27
2022-12-11T20:12:33.244Z,52.67
2022-12-11T20:15:00.394Z,45.20
2022-12-11T20:17:27.585Z,41.47
2022-12-11T20:19:54.732Z,41.93
2022-12-11T20:22:22.230Z,43.57
2022-12-11T20:24:49.373Z,42.77
2022-12-11T20:27:16.535Z,44.53
2022-12-11T20:29:43.671Z,46.67
2022-12-11T20:32:11.366Z,44.13
2022-12-11T20:34:39.001Z,40.73
2022-12-11T20:37:07.656Z,47.00
2022-12-11T20:39:35.543Z,46.83
2022-12-11T20:42:04.771Z,39.77
2022-12-11T20:44:32.580Z,41.33
2022-12-11T20:46:59.719Z,39.87
2022-12-11T20:49:27.893Z,45.37
2022-12-11T20:51:55.995Z,43.20
2022-12-11T20:54:23.134Z,46.90
2022-12-11T20:56:50.359Z,37.37
2022-12-11T20:59:17.994Z,43.03
2022-12-11T21:01:45.162Z,35.40
2022-12-11T21:04:12.446Z,40.30
2022-12-11T21:06:40.509Z,37.67
2022-12-11T21:09:11.380Z,43.57
2022-12-11T21:11:38.472Z,40.43
2022-12-11T21:14:06.618Z,43.23
2022-12-11T21:16:36.288Z,39.40
2022-12-11T21:19:04.591Z,47.43
2022-12-11T21:21:32.686Z,44.27
2022-12-11T21:23:59.970Z,46.23
2022-12-11T21:26:27.096Z,41.47
2022-12-11T21:28:54.266Z,46.27
2022-12-11T21:31:22.698Z,42.40
2022-12-11T21:33:50.259Z,43.03
2022-12-11T21:36:18.510Z,45.10
2022-12-11T21:38:46.136Z,46.73
2022-12-11T21:41:15.519Z,36.00
2022-12-11T21:44:14.555Z,44.90
2022-12-11T21:46:31.136Z,37.57
2022-12-11T21:48:58.534Z,41.77
2022-12-11T21:51:32.394Z,45.57
2022-12-11T21:54:03.221Z,40.00
2022-12-11T21:56:31.624Z,43.03
2022-12-11T21:58:58.849Z,50.50
2022-12-11T22:01:27.199Z,42.63
2022-12-11T22:03:55.478Z,45.50
2022-12-11T22:06:22.666Z,51.47
2022-12-11T22:08:49.824Z,47.17
2022-12-11T22:11:19.182Z,51.30
2022-12-11T22:13:46.302Z,46.73
2022-12-11T22:16:13.633Z,40.67
2022-12-11T22:18:42.169Z,41.20
2022-12-11T22:21:09.284Z,51.87
2022-12-11T22:23:38.593Z,50.60
2022-12-11T22:26:06.397Z,43.93
2022-12-11T22:28:33.640Z,43.73
2022-12-11T22:31:01.157Z,49.30
2022-12-11T22:33:28.312Z,49.83
2022-12-11T22:35:56.653Z,47.47
2022-12-11T22:38:24.520Z,50.57
2022-12-11T22:40:52.212Z,45.33
2022-12-11T22:43:19.408Z,48.10
2022-12-11T22:45:46.643Z,52.20
2022-12-11T22:48:13.788Z,46.80
2022-12-11T22:50:41.677Z,50.20
2022-12-11T22:53:08.944Z,47.93
2022-12-11T22:55:38.640Z,48.67
2022-12-11T22:58:05.917Z,51.27
2022-12-11T23:00:33.240Z,48.90
2022-12-11T23:03:01.792Z,51.30
2022-12-11T23:05:29.521Z,45.90
2022-12-11T23:07:57.086Z,43.90
2022-12-11T23:10:24.962Z,48.90
2022-12-11T23:12:52.701Z,49.50
2022-12-11T23:15:19.860Z,50.60
2022-12-11T23:17:48.897Z,46.93
2022-12-11T23:20:16.639Z,48.07
2022-12-11T23:22:45.060Z,44.37
2022-12-11T23:25:15.674Z,52.47
2022-12-11T23:27:43.396Z,45.43
2022-12-11T23:30:11.004Z,48.40
2022-12-11T23:32:38.547Z,50.33
2022-12-11T23:35:06.845Z,47.97
2022-12-11T23:37:34.467Z,52.47
2022-12-11T23:40:01.936Z,50.57
2022-12-11T23:42:29.258Z,56.20
2022-12-11T23:44:57.723Z,47.80
2022-12-11T23:47:25.429Z,58.53
2022-12-11T23:49:52.774Z,50.60
2022-12-11T23:52:22.922Z,52.57
2022-12-11T23:54:51.804Z,56.23
2022-12-11T23:57:19.693Z,56.40
2022-12-11T23:59:46.983Z,52.27
